To NAV CANADA Home Page Login to a new session Search on AWWS site Feedback and Comments Disclaimer Vers la page française équivalente Tips FAQ What's new on the site To the Forecasts and Observations / NOTAM section To "File a Flight Plan" website Publications and other links Update of the User's profile FIC Telephone Numbers My Weather Data Folder Route Weather Data Regional Weather Data Local Weather Data To the Forecasts and Observations / NOTAM section
Request Generated 09/26/2016 at 08:42:34 UTC . Weather information available at that time is displayed.

METAR/TAF

PRINCE ALBERT (GLASS FIELD)/SK    

METAR CYPA 260800Z 28003KT 15SM SKC 03/00 A3012 RMK SLP214=
METAR CYPA 260700Z 26003KT 15SM SKC 03/00 A3011 RMK SLP213=
METAR CYPA 260600Z 26004KT 15SM SKC 04/00 A3011 RMK SLP213=

TAF CYPA 260638Z 2607/2619 30005KT P6SM SKC PROB30 2611/2613 1SM BR
RMK NXT FCST BY 261300Z=
Your time UTC time
Weather data provided by Environment Canada and NAV CANADA